createdAt,value
2018-07-20T00:01:37.809Z,6.03
2018-07-20T00:04:07.622Z,6.23
2018-07-20T00:06:37.366Z,6.17
2018-07-20T00:09:08.775Z,6.27
2018-07-20T00:11:38.560Z,6.60
2018-07-20T00:14:08.409Z,6.63
2018-07-20T00:16:38.237Z,6.20
2018-07-20T00:19:08.044Z,6.37
2018-07-20T00:21:37.835Z,6.63
2018-07-20T00:24:07.755Z,6.70
2018-07-20T00:26:37.487Z,6.70
2018-07-20T00:29:07.352Z,7.00
2018-07-20T00:31:37.078Z,7.17
2018-07-20T00:34:06.890Z,7.40
2018-07-20T00:36:36.712Z,7.53
2018-07-20T00:39:08.764Z,7.63
2018-07-20T00:41:38.592Z,7.50
2018-07-20T00:44:08.427Z,7.87
2018-07-20T00:46:38.265Z,7.30
2018-07-20T00:49:08.083Z,7.87
2018-07-20T00:51:37.858Z,7.80
2018-07-20T00:54:07.663Z,7.60
2018-07-20T00:56:37.535Z,7.63
2018-07-20T00:59:07.307Z,7.30
2018-07-20T01:01:37.124Z,7.43
2018-07-20T01:04:06.850Z,7.50
2018-07-20T01:06:36.708Z,7.67
2018-07-20T01:09:08.503Z,8.23
2018-07-20T01:11:38.328Z,8.70
2018-07-20T01:14:08.175Z,7.73
2018-07-20T01:16:37.982Z,8.20
2018-07-20T01:19:07.769Z,8.70
2018-07-20T01:21:37.532Z,7.80
2018-07-20T01:24:07.374Z,8.13
2018-07-20T01:26:37.211Z,7.83
2018-07-20T01:29:07.132Z,7.83
2018-07-20T01:31:36.863Z,8.03
2018-07-20T01:34:06.635Z,7.70
2018-07-20T01:36:36.451Z,7.53
2018-07-20T01:39:07.599Z,8.50
2018-07-20T01:41:37.427Z,7.80
2018-07-20T01:44:07.374Z,8.10
2018-07-20T01:46:37.203Z,7.97
2018-07-20T01:49:06.942Z,8.10
2018-07-20T01:51:36.798Z,12.70
2018-07-20T01:54:06.532Z,9.03
2018-07-20T01:56:36.351Z,7.93
2018-07-20T01:59:06.227Z,8.20
2018-07-20T02:01:36.155Z,7.87
2018-07-20T02:04:06.195Z,7.77
2018-07-20T02:06:36.047Z,8.00
2018-07-20T02:09:08.634Z,7.40
2018-07-20T02:11:38.501Z,8.30
2018-07-20T02:14:08.339Z,8.13
2018-07-20T02:16:38.148Z,8.20
2018-07-20T02:19:07.914Z,8.60
2018-07-20T02:21:37.692Z,8.03
2018-07-20T02:24:07.483Z,7.90
2018-07-20T02:26:37.337Z,8.53
2018-07-20T02:29:07.171Z,8.43
2018-07-20T02:31:36.916Z,8.00
2018-07-20T02:34:06.943Z,8.30
2018-07-20T02:36:36.681Z,8.37
2018-07-20T02:39:09.924Z,8.13
2018-07-20T02:41:40.244Z,8.57
2018-07-20T02:44:10.687Z,8.63
2018-07-20T02:46:40.658Z,8.90
2018-07-20T02:49:10.435Z,7.97
2018-07-20T02:51:40.178Z,9.10
2018-07-20T02:54:09.946Z,8.50
2018-07-20T02:56:39.715Z,9.27
2018-07-20T02:59:09.551Z,8.63
2018-07-20T03:01:39.307Z,8.77
2018-07-20T03:04:09.103Z,8.70
2018-07-20T03:06:38.856Z,7.70
2018-07-20T03:09:11.277Z,8.23
2018-07-20T03:11:41.097Z,9.23
2018-07-20T03:14:11.092Z,9.10
2018-07-20T03:16:41.019Z,8.77
2018-07-20T03:19:10.849Z,8.60
2018-07-20T03:21:40.683Z,8.57
2018-07-20T03:24:10.488Z,8.80
2018-07-20T03:26:40.271Z,8.80
2018-07-20T03:29:10.018Z,9.33
2018-07-20T03:31:39.815Z,9.30
2018-07-20T03:34:09.603Z,8.47
2018-07-20T03:36:39.407Z,8.80
2018-07-20T03:39:10.155Z,8.30
2018-07-20T03:41:40.015Z,7.57
2018-07-20T03:44:09.837Z,8.57
2018-07-20T03:46:39.679Z,8.10
2018-07-20T03:49:09.412Z,8.27
2018-07-20T03:51:39.191Z,7.47
2018-07-20T03:54:08.934Z,7.70
2018-07-20T03:56:38.768Z,8.30
2018-07-20T03:59:08.552Z,8.20
2018-07-20T04:01:38.346Z,8.87
2018-07-20T04:04:08.224Z,8.10
2018-07-20T04:06:38.044Z,7.97
2018-07-20T04:09:09.125Z,7.80
2018-07-20T04:11:39.191Z,7.40
2018-07-20T04:14:09.223Z,7.43
2018-07-20T04:16:39.179Z,7.30
2018-07-20T04:19:08.975Z,7.30
2018-07-20T04:21:38.770Z,6.90
2018-07-20T04:24:08.556Z,6.53
2018-07-20T04:26:38.392Z,7.20
2018-07-20T04:29:08.120Z,6.57
2018-07-20T04:31:37.962Z,6.77
2018-07-20T04:34:07.675Z,6.67
2018-07-20T04:36:37.534Z,6.57
2018-07-20T04:39:10.824Z,7.30
2018-07-20T04:41:40.998Z,7.33
2018-07-20T04:44:10.849Z,7.13
2018-07-20T04:46:40.892Z,7.50
2018-07-20T04:49:10.685Z,7.17
2018-07-20T04:51:40.455Z,8.00
2018-07-20T04:54:10.331Z,7.30
2018-07-20T04:56:40.199Z,8.70
2018-07-20T04:59:09.980Z,8.13
2018-07-20T05:01:39.822Z,8.00
2018-07-20T05:04:09.615Z,8.53
2018-07-20T05:06:39.430Z,8.87
2018-07-20T05:09:10.264Z,8.67
2018-07-20T05:11:40.186Z,8.70
2018-07-20T05:14:10.660Z,8.43
2018-07-20T05:16:40.546Z,8.27
2018-07-20T05:19:10.449Z,8.00
2018-07-20T05:21:40.224Z,8.73
2018-07-20T05:24:10.056Z,8.87
2018-07-20T05:26:40.008Z,8.77
2018-07-20T05:29:09.788Z,9.43
2018-07-20T05:31:39.706Z,9.60
2018-07-20T05:34:09.589Z,9.40
2018-07-20T05:36:39.447Z,9.30
2018-07-20T05:39:10.479Z,9.40
2018-07-20T05:41:40.587Z,9.27
2018-07-20T05:44:10.413Z,9.37
2018-07-20T05:46:40.298Z,9.10
2018-07-20T05:49:10.088Z,8.37
2018-07-20T05:51:39.905Z,9.07
2018-07-20T05:54:09.703Z,10.13
2018-07-20T05:56:39.525Z,9.43
2018-07-20T05:59:09.483Z,8.80
2018-07-20T06:01:39.350Z,9.00
2018-07-20T06:04:09.187Z,9.83
2018-07-20T06:06:38.951Z,9.43
2018-07-20T06:09:11.494Z,9.63
2018-07-20T06:11:41.484Z,10.37
2018-07-20T06:14:11.364Z,9.73
2018-07-20T06:16:41.249Z,9.80
2018-07-20T06:19:11.140Z,10.07
2018-07-20T06:21:41.129Z,10.40
2018-07-20T06:24:11.050Z,9.27
2018-07-20T06:26:40.940Z,11.73
2018-07-20T06:29:10.796Z,9.93
2018-07-20T06:31:40.750Z,10.40
2018-07-20T06:34:10.528Z,9.97
2018-07-20T06:36:40.490Z,11.07
2018-07-20T06:39:11.687Z,9.90
2018-07-20T06:41:42.030Z,9.57
2018-07-20T06:44:11.804Z,10.03
2018-07-20T06:46:41.686Z,10.43
2018-07-20T06:49:11.540Z,10.00
2018-07-20T06:51:41.362Z,9.60
2018-07-20T06:54:11.188Z,9.60
2018-07-20T06:56:40.968Z,9.57
2018-07-20T06:59:10.760Z,9.70
2018-07-20T07:01:40.536Z,9.53
2018-07-20T07:04:10.370Z,10.27
2018-07-20T07:06:40.171Z,10.40
2018-07-20T07:09:11.091Z,9.10
2018-07-20T07:11:41.884Z,8.90
2018-07-20T07:14:11.802Z,10.03
2018-07-20T07:16:41.723Z,9.33
2018-07-20T07:19:11.535Z,9.33
2018-07-20T07:21:41.623Z,8.80
2018-07-20T07:24:11.410Z,9.37
2018-07-20T07:26:41.252Z,9.13
2018-07-20T07:29:11.207Z,9.10
2018-07-20T07:31:41.003Z,9.40
2018-07-20T07:34:10.865Z,9.17
2018-07-20T07:36:40.704Z,8.70
2018-07-20T07:39:11.961Z,9.13
2018-07-20T07:41:42.132Z,9.20
2018-07-20T07:44:11.912Z,9.07
2018-07-20T07:46:41.787Z,7.87
2018-07-20T07:49:11.670Z,8.80
2018-07-20T07:51:41.416Z,8.50
2018-07-20T07:54:11.296Z,7.97
2018-07-20T07:56:41.115Z,7.57
2018-07-20T07:59:10.960Z,8.10
2018-07-20T08:01:41.501Z,7.77
2018-07-20T08:04:11.485Z,7.67
2018-07-20T08:06:41.241Z,8.47
2018-07-20T08:09:13.014Z,7.93
2018-07-20T08:11:42.907Z,7.70
2018-07-20T08:14:16.183Z,7.20
2018-07-20T08:16:46.332Z,7.00
2018-07-20T08:19:16.241Z,7.43
2018-07-20T08:21:46.131Z,7.50
2018-07-20T08:24:15.910Z,7.60
2018-07-20T08:26:45.749Z,7.00
2018-07-20T08:29:15.686Z,7.00
2018-07-20T08:31:45.603Z,6.37
2018-07-20T08:34:18.518Z,7.13
2018-07-20T08:36:48.537Z,6.40
2018-07-20T08:39:18.714Z,7.80
2018-07-20T08:41:48.626Z,7.00
2018-07-20T08:44:18.436Z,6.60
2018-07-20T08:46:48.393Z,7.20
2018-07-20T08:49:18.280Z,6.70
2018-07-20T08:51:48.118Z,6.40
2018-07-20T08:54:17.908Z,6.87
2018-07-20T08:56:47.759Z,6.30
2018-07-20T08:59:17.519Z,6.57
2018-07-20T09:01:47.355Z,7.20
2018-07-20T09:04:17.197Z,6.47
2018-07-20T09:06:47.000Z,7.00
2018-07-20T09:09:17.032Z,5.87
2018-07-20T09:11:46.843Z,5.90
2018-07-20T09:14:16.661Z,5.77
2018-07-20T09:16:46.511Z,6.30
2018-07-20T09:19:16.400Z,6.70
2018-07-20T09:21:46.188Z,6.10
2018-07-20T09:24:15.999Z,6.07
2018-07-20T09:26:45.737Z,6.07
2018-07-20T09:29:15.560Z,6.23
2018-07-20T09:31:45.389Z,5.63
2018-07-20T09:34:15.140Z,6.40
2018-07-20T09:36:44.963Z,6.33
2018-07-20T09:39:14.731Z,6.20
2018-07-20T09:41:44.563Z,6.10
2018-07-20T09:44:14.359Z,6.30
2018-07-20T09:46:44.267Z,5.90
2018-07-20T09:49:14.163Z,5.77
2018-07-20T09:51:44.760Z,6.00
2018-07-20T09:54:14.629Z,6.77
2018-07-20T09:56:44.481Z,5.53
2018-07-20T09:59:14.339Z,5.97
2018-07-20T10:01:44.156Z,6.20
2018-07-20T10:04:13.966Z,6.33
2018-07-20T10:06:43.829Z,6.27
2018-07-20T10:09:13.895Z,6.10
2018-07-20T10:11:43.897Z,6.00
2018-07-20T10:14:13.726Z,6.20
2018-07-20T10:16:43.469Z,5.70
2018-07-20T10:19:13.412Z,5.40
2018-07-20T10:21:43.172Z,5.60
2018-07-20T10:24:12.966Z,6.07
2018-07-20T10:26:42.747Z,5.80
2018-07-20T10:29:12.535Z,6.00
2018-07-20T10:31:42.408Z,5.63
2018-07-20T10:34:12.267Z,4.90
2018-07-20T10:36:42.190Z,5.43
2018-07-20T10:39:11.625Z,5.60
2018-07-20T10:41:41.423Z,6.43
2018-07-20T10:44:11.200Z,5.60
2018-07-20T10:46:41.005Z,6.00
2018-07-20T10:49:10.983Z,5.30
2018-07-20T10:51:40.924Z,5.50
2018-07-20T10:54:10.751Z,6.27
2018-07-20T10:56:40.728Z,5.60
2018-07-20T10:59:10.539Z,5.60
2018-07-20T11:01:40.773Z,5.63
2018-07-20T11:04:10.790Z,5.73
2018-07-20T11:06:40.832Z,5.53
2018-07-20T11:09:10.616Z,5.83
2018-07-20T11:11:41.441Z,5.80
2018-07-20T11:14:11.322Z,5.47
2018-07-20T11:16:41.140Z,5.90
2018-07-20T11:19:10.987Z,5.70
2018-07-20T11:21:40.901Z,5.23
2018-07-20T11:24:10.906Z,5.53
2018-07-20T11:26:40.876Z,5.53
2018-07-20T11:29:10.711Z,5.20
2018-07-20T11:31:40.546Z,5.57
2018-07-20T11:34:10.402Z,5.50
2018-07-20T11:36:40.239Z,5.67
2018-07-20T11:39:10.557Z,5.03
2018-07-20T11:41:40.512Z,5.20
2018-07-20T11:44:10.426Z,5.50
2018-07-20T11:46:40.319Z,5.17
2018-07-20T11:49:10.223Z,5.37
2018-07-20T11:51:40.055Z,6.20
2018-07-20T11:54:09.867Z,5.37
2018-07-20T11:56:39.773Z,5.80
2018-07-20T11:59:09.551Z,5.40
2018-07-20T12:01:39.324Z,5.30
2018-07-20T12:04:09.302Z,5.13
2018-07-20T12:06:39.235Z,4.90
2018-07-20T12:09:10.888Z,5.33
2018-07-20T12:11:41.116Z,5.27
2018-07-20T12:14:10.971Z,5.00
2018-07-20T12:16:40.853Z,5.20
2018-07-20T12:19:10.699Z,5.50
2018-07-20T12:21:40.559Z,4.47
2018-07-20T12:24:10.479Z,4.57
2018-07-20T12:26:40.436Z,5.00
2018-07-20T12:29:10.555Z,5.00
2018-07-20T12:31:40.460Z,4.83
2018-07-20T12:34:10.276Z,4.87
2018-07-20T12:36:40.136Z,5.70
2018-07-20T12:39:11.239Z,4.97
2018-07-20T12:41:41.583Z,5.40
2018-07-20T12:44:11.427Z,5.67
2018-07-20T12:46:41.332Z,5.63
2018-07-20T12:49:11.200Z,5.20
2018-07-20T12:51:41.243Z,5.57
2018-07-20T12:54:11.640Z,4.80
2018-07-20T12:56:41.583Z,5.10
2018-07-20T12:59:11.446Z,5.50
2018-07-20T13:01:41.367Z,5.33
2018-07-20T13:04:11.302Z,5.93
2018-07-20T13:06:41.260Z,5.83
2018-07-20T13:09:12.767Z,5.40
2018-07-20T13:11:43.189Z,5.63
2018-07-20T13:14:13.563Z,6.00
2018-07-20T13:16:43.555Z,5.57
2018-07-20T13:19:13.354Z,5.30
2018-07-20T13:21:43.179Z,5.87
2018-07-20T13:24:12.937Z,5.40
2018-07-20T13:26:42.823Z,6.03
2018-07-20T13:29:12.564Z,5.92
2018-07-20T13:31:42.437Z,5.58
2018-07-20T13:34:12.220Z,5.70
2018-07-20T13:36:42.052Z,5.65
2018-07-20T13:39:12.198Z,5.55
2018-07-20T13:41:42.233Z,5.00
2018-07-20T13:44:12.051Z,4.80
2018-07-20T13:46:41.852Z,5.45
2018-07-20T13:49:11.753Z,4.67
2018-07-20T13:51:41.818Z,5.35
2018-07-20T13:54:11.696Z,6.30
2018-07-20T13:56:41.460Z,5.67
2018-07-20T13:59:11.214Z,5.45
2018-07-20T14:01:41.190Z,5.03
2018-07-20T14:04:10.920Z,4.97
2018-07-20T14:06:40.758Z,5.35
2018-07-20T14:09:11.466Z,5.27
2018-07-20T14:11:41.378Z,5.40
2018-07-20T14:14:11.376Z,5.62
2018-07-20T14:16:41.218Z,5.20
2018-07-20T14:19:11.072Z,4.70
2018-07-20T14:21:40.992Z,5.43
2018-07-20T14:24:10.781Z,5.40
2018-07-20T14:26:40.812Z,5.60
2018-07-20T14:29:10.649Z,5.50
2018-07-20T14:31:40.577Z,6.07
2018-07-20T14:34:10.404Z,6.00
2018-07-20T14:36:40.235Z,5.37
2018-07-20T14:39:12.553Z,5.77
2018-07-20T14:41:42.615Z,5.30
2018-07-20T14:44:12.379Z,5.30
2018-07-20T14:46:42.177Z,5.53
2018-07-20T14:49:12.003Z,5.50
2018-07-20T14:51:41.818Z,5.40
2018-07-20T14:54:11.657Z,5.13
2018-07-20T14:56:41.459Z,5.10
2018-07-20T14:59:11.307Z,5.03
2018-07-20T15:01:42.451Z,4.57
2018-07-20T15:04:12.196Z,4.90
2018-07-20T15:06:42.024Z,5.07
2018-07-20T15:09:12.942Z,4.77
2018-07-20T15:11:42.768Z,5.97
2018-07-20T15:14:12.579Z,5.73
2018-07-20T15:16:42.612Z,5.70
2018-07-20T15:19:12.348Z,5.67
2018-07-20T15:21:42.151Z,5.77
2018-07-20T15:24:11.883Z,5.57
2018-07-20T15:26:41.633Z,5.43
2018-07-20T15:29:11.613Z,5.17
2018-07-20T15:31:41.440Z,5.40
2018-07-20T15:34:11.235Z,5.67
2018-07-20T15:36:40.974Z,5.63
2018-07-20T15:39:11.693Z,5.47
2018-07-20T15:41:41.531Z,5.50
2018-07-20T15:44:11.269Z,5.30
2018-07-20T15:46:41.229Z,5.03
2018-07-20T15:49:10.852Z,5.83
2018-07-20T15:53:35.206Z,5.30
2018-07-20T15:54:10.468Z,5.37
2018-07-20T15:56:40.275Z,5.47
2018-07-20T15:59:10.077Z,5.70
2018-07-20T16:01:39.855Z,5.80
2018-07-20T16:04:09.623Z,5.60
2018-07-20T16:06:39.464Z,5.57
2018-07-20T16:09:11.582Z,5.17
2018-07-20T16:11:41.426Z,6.10
2018-07-20T16:14:11.263Z,6.00
2018-07-20T16:16:41.095Z,5.57
2018-07-20T16:19:10.919Z,5.60
2018-07-20T16:21:40.699Z,5.67
2018-07-20T16:24:10.552Z,5.77
2018-07-20T16:26:40.339Z,5.87
2018-07-20T16:29:10.085Z,5.63
2018-07-20T16:31:39.872Z,5.83
2018-07-20T16:34:09.592Z,5.70
2018-07-20T16:36:39.483Z,5.90
2018-07-20T16:39:10.761Z,5.83
2018-07-20T16:41:40.515Z,6.10
2018-07-20T16:44:10.284Z,5.50
2018-07-20T16:46:40.049Z,5.73
2018-07-20T16:49:09.787Z,6.27
2018-07-20T16:51:39.540Z,6.07
2018-07-20T16:54:09.626Z,5.73
2018-07-20T16:56:39.375Z,5.47
2018-07-20T16:59:09.349Z,5.97
2018-07-20T17:01:39.147Z,5.50
2018-07-20T17:04:08.972Z,5.60
2018-07-20T17:06:38.927Z,5.80
2018-07-20T17:09:10.420Z,5.40
2018-07-20T17:11:40.320Z,6.00
2018-07-20T17:14:10.134Z,5.70
2018-07-20T17:16:39.883Z,5.80
2018-07-20T17:19:09.738Z,5.80
2018-07-20T17:21:39.587Z,5.87
2018-07-20T17:24:09.362Z,6.23
2018-07-20T17:26:39.118Z,6.13
2018-07-20T17:29:08.884Z,6.40
2018-07-20T17:31:38.761Z,5.80
2018-07-20T17:34:08.552Z,6.13
2018-07-20T17:36:38.288Z,6.07
2018-07-20T17:39:10.432Z,6.43
2018-07-20T17:41:40.213Z,6.30
2018-07-20T17:44:10.626Z,7.67
2018-07-20T17:46:40.476Z,6.77
2018-07-20T17:49:10.337Z,6.10
2018-07-20T17:51:40.191Z,6.67
2018-07-20T17:54:09.947Z,6.50
2018-07-20T17:56:39.840Z,6.10
2018-07-20T17:59:09.547Z,6.43
2018-07-20T18:01:39.448Z,6.53
2018-07-20T18:04:09.207Z,7.00
2018-07-20T18:06:38.895Z,6.60
2018-07-20T18:09:09.903Z,7.23
2018-07-20T18:11:39.694Z,6.87
2018-07-20T18:14:09.569Z,7.50
2018-07-20T18:16:39.358Z,6.73
2018-07-20T18:19:09.103Z,6.80
2018-07-20T18:21:38.843Z,6.70
2018-07-20T18:24:08.651Z,7.23
2018-07-20T18:26:38.379Z,6.70
2018-07-20T18:29:08.236Z,6.87
2018-07-20T18:31:37.972Z,7.10
2018-07-20T18:34:07.747Z,6.73
2018-07-20T18:36:37.451Z,6.93
2018-07-20T18:39:09.843Z,6.73
2018-07-20T18:41:40.432Z,6.37
2018-07-20T18:44:10.423Z,7.13
2018-07-20T18:46:40.226Z,7.20
2018-07-20T18:49:10.007Z,6.70
2018-07-20T18:51:39.777Z,6.97
2018-07-20T18:54:09.547Z,7.00
2018-07-20T18:56:39.283Z,6.63
2018-07-20T18:59:09.038Z,7.70
2018-07-20T19:01:38.768Z,6.63
2018-07-20T19:04:08.523Z,7.17
2018-07-20T19:06:38.312Z,7.30
2018-07-20T19:09:10.167Z,6.80
2018-07-20T19:11:40.131Z,7.00
2018-07-20T19:14:09.962Z,7.00
2018-07-20T19:16:39.827Z,6.40
2018-07-20T19:19:09.580Z,6.53
2018-07-20T19:21:39.372Z,6.37
2018-07-20T19:24:09.068Z,6.23
2018-07-20T19:26:38.871Z,6.50
2018-07-20T19:29:08.633Z,6.60
2018-07-20T19:31:38.452Z,6.27
2018-07-20T19:34:08.274Z,6.67
2018-07-20T19:36:38.022Z,7.17
2018-07-20T19:39:09.622Z,6.77
2018-07-20T19:41:39.387Z,6.87
2018-07-20T19:44:09.243Z,7.40
2018-07-20T19:46:39.089Z,6.27
2018-07-20T19:49:08.835Z,6.13
2018-07-20T19:51:38.641Z,6.73
2018-07-20T19:54:08.427Z,6.43
2018-07-20T19:56:38.195Z,6.37
2018-07-20T19:59:07.987Z,6.50
2018-07-20T20:01:37.816Z,6.30
2018-07-20T20:04:07.516Z,6.20
2018-07-20T20:06:37.282Z,6.30
2018-07-20T20:09:08.954Z,6.30
2018-07-20T20:11:38.747Z,5.80
2018-07-20T20:14:08.605Z,5.97
2018-07-20T20:16:38.421Z,6.37
2018-07-20T20:19:08.224Z,5.80
2018-07-20T20:21:38.100Z,6.23
2018-07-20T20:24:07.919Z,6.20
2018-07-20T20:26:37.659Z,6.10
2018-07-20T20:29:07.433Z,5.63
2018-07-20T20:31:37.155Z,5.80
2018-07-20T20:34:06.891Z,6.30
2018-07-20T20:36:36.735Z,5.90
2018-07-20T20:39:09.792Z,6.00
2018-07-20T20:41:39.627Z,6.40
2018-07-20T20:44:09.656Z,6.43
2018-07-20T20:46:39.911Z,6.37
2018-07-20T20:49:09.619Z,6.30
2018-07-20T20:51:39.388Z,6.33
2018-07-20T20:54:09.190Z,6.13
2018-07-20T20:56:39.019Z,6.30
2018-07-20T20:59:08.824Z,6.20
2018-07-20T21:01:38.562Z,6.10
2018-07-20T21:04:08.308Z,6.37
2018-07-20T21:06:38.087Z,6.37
2018-07-20T21:09:09.193Z,6.40
2018-07-20T21:11:39.104Z,6.33
2018-07-20T21:14:08.908Z,6.30
2018-07-20T21:16:38.611Z,6.77
2018-07-20T21:19:08.396Z,5.93
2018-07-20T21:21:38.165Z,6.20
2018-07-20T21:24:08.268Z,6.10
2018-07-20T21:26:38.041Z,6.30
2018-07-20T21:29:07.881Z,5.97
2018-07-20T21:31:37.652Z,5.93
2018-07-20T21:34:07.527Z,5.93
2018-07-20T21:36:37.252Z,5.77
2018-07-20T21:39:10.023Z,6.03
2018-07-20T21:41:40.068Z,5.80
2018-07-20T21:44:09.943Z,5.70
2018-07-20T21:46:39.866Z,5.97
2018-07-20T21:49:09.657Z,5.77
2018-07-20T21:51:39.492Z,6.00
2018-07-20T21:54:09.211Z,5.83
2018-07-20T21:56:38.996Z,6.03
2018-07-20T21:59:08.799Z,5.40
2018-07-20T22:01:38.590Z,5.63
2018-07-20T22:04:08.424Z,5.40
2018-07-20T22:06:38.163Z,5.40
2018-07-20T22:09:09.781Z,5.70
2018-07-20T22:11:39.811Z,5.30
2018-07-20T22:14:09.583Z,5.33
2018-07-20T22:16:39.333Z,5.73
2018-07-20T22:19:09.047Z,5.13
2018-07-20T22:21:38.858Z,5.50
2018-07-20T22:24:08.568Z,5.67
2018-07-20T22:26:38.383Z,5.10
2018-07-20T22:29:08.173Z,5.27
2018-07-20T22:31:37.973Z,5.57
2018-07-20T22:34:07.726Z,5.50
2018-07-20T22:36:37.573Z,5.40
2018-07-20T22:39:10.965Z,5.57
2018-07-20T22:41:40.724Z,5.17
2018-07-20T22:44:10.474Z,5.10
2018-07-20T22:46:40.188Z,5.40
2018-07-20T22:49:09.965Z,5.57
2018-07-20T22:51:39.727Z,5.50
2018-07-20T22:54:10.340Z,5.83
2018-07-20T22:56:40.122Z,5.70
2018-07-20T22:59:09.867Z,5.50
2018-07-20T23:01:39.592Z,5.67
2018-07-20T23:04:09.399Z,6.07
2018-07-20T23:06:39.206Z,5.80
2018-07-20T23:09:09.892Z,6.03
2018-07-20T23:11:39.819Z,6.13
2018-07-20T23:14:09.757Z,5.77
2018-07-20T23:16:39.623Z,5.90
2018-07-20T23:19:09.765Z,5.60
2018-07-20T23:21:39.542Z,5.60
2018-07-20T23:24:09.267Z,6.40
2018-07-20T23:26:39.015Z,5.87
2018-07-20T23:29:08.782Z,5.40
2018-07-20T23:31:38.527Z,5.70
2018-07-20T23:34:08.592Z,5.80
2018-07-20T23:36:38.408Z,5.97
2018-07-20T23:39:09.468Z,6.27
2018-07-20T23:41:39.232Z,5.63
2018-07-20T23:44:09.298Z,5.60
2018-07-20T23:46:39.118Z,5.80
2018-07-20T23:49:08.911Z,6.20
2018-07-20T23:51:38.647Z,5.80
2018-07-20T23:54:08.435Z,6.20
2018-07-20T23:56:38.134Z,6.33
2018-07-20T23:59:07.871Z,6.03
